sensor_id;sensor_type;location;lat;lon;timestamp;P1;durP1;ratioP1;P2;durP2;ratioP2
11191;SDS011;5652;48.406;10.820;2023-04-15T00:02:14;6.47;;;4.00;;
11191;SDS011;5652;48.406;10.820;2023-04-15T00:04:43;6.13;;;3.75;;
11191;SDS011;5652;48.406;10.820;2023-04-15T00:07:11;6.22;;;4.00;;
11191;SDS011;5652;48.406;10.820;2023-04-15T00:09:39;6.47;;;4.07;;
11191;SDS011;5652;48.406;10.820;2023-04-15T00:12:06;6.15;;;3.92;;
11191;SDS011;5652;48.406;10.820;2023-04-15T00:14:34;5.57;;;3.70;;
11191;SDS011;5652;48.406;10.820;2023-04-15T00:17:02;7.40;;;4.17;;
11191;SDS011;5652;48.406;10.820;2023-04-15T00:19:30;5.80;;;3.78;;
11191;SDS011;5652;48.406;10.820;2023-04-15T00:21:58;5.55;;;4.35;;
11191;SDS011;5652;48.406;10.820;2023-04-15T00:24:25;6.93;;;3.80;;
11191;SDS011;5652;48.406;10.820;2023-04-15T00:26:53;8.65;;;4.40;;
11191;SDS011;5652;48.406;10.820;2023-04-15T00:29:20;6.63;;;3.63;;
11191;SDS011;5652;48.406;10.820;2023-04-15T00:31:47;6.97;;;4.60;;
11191;SDS011;5652;48.406;10.820;2023-04-15T00:34:15;7.75;;;4.20;;
11191;SDS011;5652;48.406;10.820;2023-04-15T00:36:42;6.72;;;3.92;;
11191;SDS011;5652;48.406;10.820;2023-04-15T00:39:10;6.63;;;3.97;;
11191;SDS011;5652;48.406;10.820;2023-04-15T00:41:37;10.23;;;4.05;;
11191;SDS011;5652;48.406;10.820;2023-04-15T00:44:05;6.57;;;4.00;;
11191;SDS011;5652;48.406;10.820;2023-04-15T00:46:32;7.13;;;3.75;;
11191;SDS011;5652;48.406;10.820;2023-04-15T00:49:01;7.00;;;4.22;;
11191;SDS011;5652;48.406;10.820;2023-04-15T00:51:29;9.38;;;5.10;;
11191;SDS011;5652;48.406;10.820;2023-04-15T00:53:57;7.60;;;3.90;;
11191;SDS011;5652;48.406;10.820;2023-04-15T00:56:26;7.53;;;4.30;;
11191;SDS011;5652;48.406;10.820;2023-04-15T00:58:54;8.07;;;5.33;;
11191;SDS011;5652;48.406;10.820;2023-04-15T01:01:22;10.23;;;5.93;;
11191;SDS011;5652;48.406;10.820;2023-04-15T01:03:50;8.25;;;5.55;;
11191;SDS011;5652;48.406;10.820;2023-04-15T01:06:18;9.65;;;5.32;;
11191;SDS011;5652;48.406;10.820;2023-04-15T01:08:45;8.43;;;5.30;;
11191;SDS011;5652;48.406;10.820;2023-04-15T01:11:12;7.28;;;5.10;;
11191;SDS011;5652;48.406;10.820;2023-04-15T01:13:41;7.53;;;5.35;;
11191;SDS011;5652;48.406;10.820;2023-04-15T01:16:08;7.55;;;5.38;;
11191;SDS011;5652;48.406;10.820;2023-04-15T01:18:35;8.75;;;5.03;;
11191;SDS011;5652;48.406;10.820;2023-04-15T01:21:03;11.02;;;5.45;;
11191;SDS011;5652;48.406;10.820;2023-04-15T01:23:31;10.17;;;5.40;;
11191;SDS011;5652;48.406;10.820;2023-04-15T01:25:59;8.15;;;5.07;;
11191;SDS011;5652;48.406;10.820;2023-04-15T01:28:27;8.43;;;5.22;;
11191;SDS011;5652;48.406;10.820;2023-04-15T01:31:04;8.73;;;5.50;;
11191;SDS011;5652;48.406;10.820;2023-04-15T01:33:32;11.27;;;5.60;;
11191;SDS011;5652;48.406;10.820;2023-04-15T01:35:59;10.45;;;5.13;;
11191;SDS011;5652;48.406;10.820;2023-04-15T01:38:26;8.43;;;5.07;;
11191;SDS011;5652;48.406;10.820;2023-04-15T01:40:54;8.60;;;5.47;;
11191;SDS011;5652;48.406;10.820;2023-04-15T01:43:23;8.05;;;5.55;;
11191;SDS011;5652;48.406;10.820;2023-04-15T01:45:50;8.52;;;5.50;;
11191;SDS011;5652;48.406;10.820;2023-04-15T01:48:17;9.73;;;5.60;;
11191;SDS011;5652;48.406;10.820;2023-04-15T01:50:44;9.68;;;6.10;;
11191;SDS011;5652;48.406;10.820;2023-04-15T01:53:11;8.90;;;5.60;;
11191;SDS011;5652;48.406;10.820;2023-04-15T01:55:38;9.93;;;5.82;;
11191;SDS011;5652;48.406;10.820;2023-04-15T01:58:05;9.00;;;5.53;;
11191;SDS011;5652;48.406;10.820;2023-04-15T02:00:34;8.70;;;5.63;;
11191;SDS011;5652;48.406;10.820;2023-04-15T02:03:01;8.93;;;5.60;;
11191;SDS011;5652;48.406;10.820;2023-04-15T02:05:28;9.55;;;5.70;;
11191;SDS011;5652;48.406;10.820;2023-04-15T02:07:56;7.70;;;5.35;;
11191;SDS011;5652;48.406;10.820;2023-04-15T02:10:23;9.13;;;5.70;;
11191;SDS011;5652;48.406;10.820;2023-04-15T02:12:50;9.13;;;5.50;;
11191;SDS011;5652;48.406;10.820;2023-04-15T02:15:18;8.38;;;5.65;;
11191;SDS011;5652;48.406;10.820;2023-04-15T02:17:47;11.98;;;5.72;;
11191;SDS011;5652;48.406;10.820;2023-04-15T02:20:15;9.55;;;5.78;;
11191;SDS011;5652;48.406;10.820;2023-04-15T02:22:42;10.38;;;5.53;;
11191;SDS011;5652;48.406;10.820;2023-04-15T02:25:09;10.17;;;5.43;;
11191;SDS011;5652;48.406;10.820;2023-04-15T02:27:36;9.38;;;6.13;;
11191;SDS011;5652;48.406;10.820;2023-04-15T02:30:04;9.73;;;5.88;;
11191;SDS011;5652;48.406;10.820;2023-04-15T02:32:32;9.40;;;6.00;;
11191;SDS011;5652;48.406;10.820;2023-04-15T02:35:02;9.50;;;5.82;;
11191;SDS011;5652;48.406;10.820;2023-04-15T02:37:30;8.90;;;5.55;;
11191;SDS011;5652;48.406;10.820;2023-04-15T02:40:00;9.25;;;5.70;;
11191;SDS011;5652;48.406;10.820;2023-04-15T02:42:27;9.45;;;5.80;;
11191;SDS011;5652;48.406;10.820;2023-04-15T02:44:55;9.25;;;5.60;;
11191;SDS011;5652;48.406;10.820;2023-04-15T02:47:24;9.32;;;5.90;;
11191;SDS011;5652;48.406;10.820;2023-04-15T02:49:51;8.77;;;5.95;;
11191;SDS011;5652;48.406;10.820;2023-04-15T02:52:20;11.85;;;5.72;;
11191;SDS011;5652;48.406;10.820;2023-04-15T02:54:47;9.82;;;5.43;;
11191;SDS011;5652;48.406;10.820;2023-04-15T02:57:14;13.80;;;6.30;;
11191;SDS011;5652;48.406;10.820;2023-04-15T02:59:41;9.25;;;5.57;;
11191;SDS011;5652;48.406;10.820;2023-04-15T03:02:08;8.32;;;5.60;;
11191;SDS011;5652;48.406;10.820;2023-04-15T03:04:35;8.95;;;5.60;;
11191;SDS011;5652;48.406;10.820;2023-04-15T03:07:04;8.18;;;5.30;;
11191;SDS011;5652;48.406;10.820;2023-04-15T03:09:33;8.05;;;5.97;;
11191;SDS011;5652;48.406;10.820;2023-04-15T03:12:00;8.15;;;5.93;;
11191;SDS011;5652;48.406;10.820;2023-04-15T03:14:27;11.38;;;5.80;;
11191;SDS011;5652;48.406;10.820;2023-04-15T03:16:54;10.27;;;5.80;;
11191;SDS011;5652;48.406;10.820;2023-04-15T03:19:23;9.05;;;5.60;;
11191;SDS011;5652;48.406;10.820;2023-04-15T03:21:50;8.25;;;5.82;;
11191;SDS011;5652;48.406;10.820;2023-04-15T03:24:17;11.13;;;6.20;;
11191;SDS011;5652;48.406;10.820;2023-04-15T03:26:46;9.73;;;6.03;;
11191;SDS011;5652;48.406;10.820;2023-04-15T03:29:13;9.13;;;5.45;;
11191;SDS011;5652;48.406;10.820;2023-04-15T03:31:40;7.67;;;5.70;;
11191;SDS011;5652;48.406;10.820;2023-04-15T03:34:07;11.40;;;6.15;;
11191;SDS011;5652;48.406;10.820;2023-04-15T03:36:34;8.85;;;5.68;;
11191;SDS011;5652;48.406;10.820;2023-04-15T03:39:01;10.45;;;5.95;;
11191;SDS011;5652;48.406;10.820;2023-04-15T03:41:28;9.23;;;5.47;;
11191;SDS011;5652;48.406;10.820;2023-04-15T03:43:58;10.82;;;5.95;;
11191;SDS011;5652;48.406;10.820;2023-04-15T03:46:25;10.38;;;6.45;;
11191;SDS011;5652;48.406;10.820;2023-04-15T03:48:52;10.10;;;6.00;;
11191;SDS011;5652;48.406;10.820;2023-04-15T03:51:19;10.20;;;5.85;;
11191;SDS011;5652;48.406;10.820;2023-04-15T03:53:46;9.77;;;5.63;;
11191;SDS011;5652;48.406;10.820;2023-04-15T03:56:13;8.77;;;5.40;;
11191;SDS011;5652;48.406;10.820;2023-04-15T03:58:41;9.25;;;5.57;;
11191;SDS011;5652;48.406;10.820;2023-04-15T04:01:09;10.15;;;5.63;;
11191;SDS011;5652;48.406;10.820;2023-04-15T04:03:36;9.65;;;5.15;;
11191;SDS011;5652;48.406;10.820;2023-04-15T04:06:03;8.55;;;5.32;;
11191;SDS011;5652;48.406;10.820;2023-04-15T04:08:30;10.20;;;5.28;;
11191;SDS011;5652;48.406;10.820;2023-04-15T04:10:58;9.10;;;5.68;;
11191;SDS011;5652;48.406;10.820;2023-04-15T04:13:25;7.38;;;5.20;;
11191;SDS011;5652;48.406;10.820;2023-04-15T04:15:52;7.55;;;5.07;;
11191;SDS011;5652;48.406;10.820;2023-04-15T04:18:20;9.13;;;5.22;;
11191;SDS011;5652;48.406;10.820;2023-04-15T04:20:48;6.90;;;4.90;;
11191;SDS011;5652;48.406;10.820;2023-04-15T04:23:15;9.50;;;5.00;;
11191;SDS011;5652;48.406;10.820;2023-04-15T04:25:42;9.43;;;5.30;;
11191;SDS011;5652;48.406;10.820;2023-04-15T04:28:09;9.90;;;5.72;;
11191;SDS011;5652;48.406;10.820;2023-04-15T04:30:38;8.90;;;5.28;;
11191;SDS011;5652;48.406;10.820;2023-04-15T04:33:05;8.50;;;5.20;;
11191;SDS011;5652;48.406;10.820;2023-04-15T04:35:34;10.10;;;4.95;;
11191;SDS011;5652;48.406;10.820;2023-04-15T04:38:01;8.95;;;5.30;;
11191;SDS011;5652;48.406;10.820;2023-04-15T04:40:29;5.90;;;4.70;;
11191;SDS011;5652;48.406;10.820;2023-04-15T04:42:56;11.77;;;5.13;;
11191;SDS011;5652;48.406;10.820;2023-04-15T04:45:23;8.65;;;4.68;;
11191;SDS011;5652;48.406;10.820;2023-04-15T04:47:51;10.70;;;5.18;;
11191;SDS011;5652;48.406;10.820;2023-04-15T04:50:18;8.85;;;4.75;;
11191;SDS011;5652;48.406;10.820;2023-04-15T04:52:47;10.80;;;4.80;;
11191;SDS011;5652;48.406;10.820;2023-04-15T04:55:14;8.82;;;4.80;;
11191;SDS011;5652;48.406;10.820;2023-04-15T04:57:41;10.80;;;5.03;;
11191;SDS011;5652;48.406;10.820;2023-04-15T05:00:08;6.53;;;4.38;;
11191;SDS011;5652;48.406;10.820;2023-04-15T05:02:36;7.32;;;4.38;;
11191;SDS011;5652;48.406;10.820;2023-04-15T05:05:04;8.52;;;4.75;;
11191;SDS011;5652;48.406;10.820;2023-04-15T05:07:31;9.45;;;5.55;;
11191;SDS011;5652;48.406;10.820;2023-04-15T05:09:59;9.30;;;5.22;;
11191;SDS011;5652;48.406;10.820;2023-04-15T05:12:27;9.30;;;5.18;;
11191;SDS011;5652;48.406;10.820;2023-04-15T05:14:54;9.85;;;5.07;;
11191;SDS011;5652;48.406;10.820;2023-04-15T05:17:22;9.20;;;4.70;;
11191;SDS011;5652;48.406;10.820;2023-04-15T05:19:49;7.83;;;4.53;;
11191;SDS011;5652;48.406;10.820;2023-04-15T05:22:17;8.38;;;4.50;;
11191;SDS011;5652;48.406;10.820;2023-04-15T05:24:44;10.23;;;4.93;;
11191;SDS011;5652;48.406;10.820;2023-04-15T05:27:13;8.30;;;4.60;;
11191;SDS011;5652;48.406;10.820;2023-04-15T05:29:40;8.32;;;4.60;;
11191;SDS011;5652;48.406;10.820;2023-04-15T05:32:07;7.32;;;4.38;;
11191;SDS011;5652;48.406;10.820;2023-04-15T05:34:34;7.95;;;4.20;;
11191;SDS011;5652;48.406;10.820;2023-04-15T05:37:01;7.50;;;4.13;;
11191;SDS011;5652;48.406;10.820;2023-04-15T05:39:29;6.13;;;3.58;;
11191;SDS011;5652;48.406;10.820;2023-04-15T05:41:56;6.47;;;3.63;;
11191;SDS011;5652;48.406;10.820;2023-04-15T05:44:25;8.73;;;3.40;;
11191;SDS011;5652;48.406;10.820;2023-04-15T05:46:52;8.23;;;3.40;;
11191;SDS011;5652;48.406;10.820;2023-04-15T05:49:19;5.60;;;3.10;;
11191;SDS011;5652;48.406;10.820;2023-04-15T05:51:46;6.82;;;3.20;;
11191;SDS011;5652;48.406;10.820;2023-04-15T05:54:13;7.70;;;3.42;;
11191;SDS011;5652;48.406;10.820;2023-04-15T05:56:41;6.25;;;3.38;;
11191;SDS011;5652;48.406;10.820;2023-04-15T05:59:08;6.93;;;2.97;;
11191;SDS011;5652;48.406;10.820;2023-04-15T06:01:37;5.63;;;2.90;;
11191;SDS011;5652;48.406;10.820;2023-04-15T06:04:04;8.80;;;3.17;;
11191;SDS011;5652;48.406;10.820;2023-04-15T06:06:31;3.95;;;2.63;;
11191;SDS011;5652;48.406;10.820;2023-04-15T06:08:58;7.13;;;2.90;;
11191;SDS011;5652;48.406;10.820;2023-04-15T06:11:26;6.32;;;2.70;;
11191;SDS011;5652;48.406;10.820;2023-04-15T06:13:53;4.88;;;2.70;;
11191;SDS011;5652;48.406;10.820;2023-04-15T06:16:20;4.72;;;2.50;;
11191;SDS011;5652;48.406;10.820;2023-04-15T06:18:49;5.53;;;2.50;;
11191;SDS011;5652;48.406;10.820;2023-04-15T06:21:16;4.60;;;2.30;;
11191;SDS011;5652;48.406;10.820;2023-04-15T06:23:43;4.47;;;2.30;;
11191;SDS011;5652;48.406;10.820;2023-04-15T06:26:11;6.68;;;2.75;;
11191;SDS011;5652;48.406;10.820;2023-04-15T06:28:38;4.68;;;2.53;;
11191;SDS011;5652;48.406;10.820;2023-04-15T06:31:06;4.80;;;2.47;;
11191;SDS011;5652;48.406;10.820;2023-04-15T06:33:33;6.65;;;2.63;;
11191;SDS011;5652;48.406;10.820;2023-04-15T06:36:01;6.57;;;2.63;;
11191;SDS011;5652;48.406;10.820;2023-04-15T06:38:28;5.18;;;2.60;;
11191;SDS011;5652;48.406;10.820;2023-04-15T06:40:55;3.45;;;2.30;;
11191;SDS011;5652;48.406;10.820;2023-04-15T06:43:23;4.75;;;2.28;;
11191;SDS011;5652;48.406;10.820;2023-04-15T06:45:50;4.20;;;2.20;;
11191;SDS011;5652;48.406;10.820;2023-04-15T06:48:17;5.43;;;2.30;;
11191;SDS011;5652;48.406;10.820;2023-04-15T06:50:44;4.90;;;2.22;;
11191;SDS011;5652;48.406;10.820;2023-04-15T06:53:12;5.78;;;2.13;;
11191;SDS011;5652;48.406;10.820;2023-04-15T06:55:39;6.00;;;2.20;;
11191;SDS011;5652;48.406;10.820;2023-04-15T06:58:07;6.10;;;2.20;;
11191;SDS011;5652;48.406;10.820;2023-04-15T07:00:34;5.10;;;2.10;;
11191;SDS011;5652;48.406;10.820;2023-04-15T07:03:03;5.43;;;2.30;;
11191;SDS011;5652;48.406;10.820;2023-04-15T07:05:30;5.30;;;2.53;;
11191;SDS011;5652;48.406;10.820;2023-04-15T07:07:58;3.47;;;2.20;;
11191;SDS011;5652;48.406;10.820;2023-04-15T07:10:26;4.40;;;2.00;;
11191;SDS011;5652;48.406;10.820;2023-04-15T07:12:53;4.03;;;2.00;;
11191;SDS011;5652;48.406;10.820;2023-04-15T07:15:20;5.18;;;2.30;;
11191;SDS011;5652;48.406;10.820;2023-04-15T07:17:47;4.28;;;2.00;;
11191;SDS011;5652;48.406;10.820;2023-04-15T07:20:15;5.13;;;2.15;;
11191;SDS011;5652;48.406;10.820;2023-04-15T07:22:42;3.72;;;1.80;;
11191;SDS011;5652;48.406;10.820;2023-04-15T07:25:09;4.47;;;2.00;;
11191;SDS011;5652;48.406;10.820;2023-04-15T07:27:38;9.03;;;2.10;;
11191;SDS011;5652;48.406;10.820;2023-04-15T07:30:06;4.90;;;2.00;;
11191;SDS011;5652;48.406;10.820;2023-04-15T07:32:33;3.97;;;2.20;;
11191;SDS011;5652;48.406;10.820;2023-04-15T07:35:01;4.63;;;1.88;;
11191;SDS011;5652;48.406;10.820;2023-04-15T07:37:28;3.55;;;2.00;;
11191;SDS011;5652;48.406;10.820;2023-04-15T07:39:55;3.65;;;2.05;;
11191;SDS011;5652;48.406;10.820;2023-04-15T07:42:22;3.58;;;1.85;;
11191;SDS011;5652;48.406;10.820;2023-04-15T07:44:50;4.40;;;1.95;;
11191;SDS011;5652;48.406;10.820;2023-04-15T07:47:17;3.53;;;1.95;;
11191;SDS011;5652;48.406;10.820;2023-04-15T07:49:45;4.23;;;2.00;;
11191;SDS011;5652;48.406;10.820;2023-04-15T07:52:12;3.17;;;1.98;;
11191;SDS011;5652;48.406;10.820;2023-04-15T07:54:39;2.78;;;1.88;;
11191;SDS011;5652;48.406;10.820;2023-04-15T07:57:06;3.30;;;1.60;;
11191;SDS011;5652;48.406;10.820;2023-04-15T07:59:33;4.80;;;2.35;;
11191;SDS011;5652;48.406;10.820;2023-04-15T08:02:02;4.00;;;1.77;;
11191;SDS011;5652;48.406;10.820;2023-04-15T08:04:29;4.15;;;1.90;;
11191;SDS011;5652;48.406;10.820;2023-04-15T08:06:57;2.17;;;1.50;;
11191;SDS011;5652;48.406;10.820;2023-04-15T08:09:24;4.43;;;2.08;;
11191;SDS011;5652;48.406;10.820;2023-04-15T08:11:52;3.78;;;2.20;;
11191;SDS011;5652;48.406;10.820;2023-04-15T08:14:19;4.32;;;1.98;;
11191;SDS011;5652;48.406;10.820;2023-04-15T08:16:46;3.05;;;1.80;;
11191;SDS011;5652;48.406;10.820;2023-04-15T08:19:14;3.65;;;2.00;;
11191;SDS011;5652;48.406;10.820;2023-04-15T08:21:41;4.60;;;2.90;;
11191;SDS011;5652;48.406;10.820;2023-04-15T08:24:08;4.53;;;2.10;;
11191;SDS011;5652;48.406;10.820;2023-04-15T08:26:36;3.83;;;2.22;;
11191;SDS011;5652;48.406;10.820;2023-04-15T08:29:04;3.55;;;1.85;;
11191;SDS011;5652;48.406;10.820;2023-04-15T08:31:31;5.05;;;2.10;;
11191;SDS011;5652;48.406;10.820;2023-04-15T08:33:58;2.95;;;1.85;;
11191;SDS011;5652;48.406;10.820;2023-04-15T08:36:26;3.70;;;1.97;;
11191;SDS011;5652;48.406;10.820;2023-04-15T08:38:53;3.72;;;1.90;;
11191;SDS011;5652;48.406;10.820;2023-04-15T08:41:21;4.93;;;2.15;;
11191;SDS011;5652;48.406;10.820;2023-04-15T08:43:51;3.08;;;1.98;;
11191;SDS011;5652;48.406;10.820;2023-04-15T08:46:18;2.70;;;1.98;;
11191;SDS011;5652;48.406;10.820;2023-04-15T08:48:47;5.85;;;2.92;;
11191;SDS011;5652;48.406;10.820;2023-04-15T08:51:14;4.60;;;2.20;;
11191;SDS011;5652;48.406;10.820;2023-04-15T08:53:43;3.38;;;2.40;;
11191;SDS011;5652;48.406;10.820;2023-04-15T08:56:12;3.85;;;2.30;;
11191;SDS011;5652;48.406;10.820;2023-04-15T08:58:40;26.08;;;11.00;;
11191;SDS011;5652;48.406;10.820;2023-04-15T09:01:08;3.55;;;2.35;;
11191;SDS011;5652;48.406;10.820;2023-04-15T09:03:35;3.28;;;2.00;;
11191;SDS011;5652;48.406;10.820;2023-04-15T09:06:03;5.18;;;2.50;;
11191;SDS011;5652;48.406;10.820;2023-04-15T09:08:30;3.20;;;2.00;;
11191;SDS011;5652;48.406;10.820;2023-04-15T09:11:00;4.38;;;2.20;;
11191;SDS011;5652;48.406;10.820;2023-04-15T09:13:27;4.78;;;2.08;;
11191;SDS011;5652;48.406;10.820;2023-04-15T09:15:55;5.18;;;2.30;;
11191;SDS011;5652;48.406;10.820;2023-04-15T09:18:28;3.72;;;2.08;;
11191;SDS011;5652;48.406;10.820;2023-04-15T09:20:59;29.45;;;12.02;;
11191;SDS011;5652;48.406;10.820;2023-04-15T09:23:30;5.90;;;3.08;;
11191;SDS011;5652;48.406;10.820;2023-04-15T09:25:58;3.70;;;2.20;;
11191;SDS011;5652;48.406;10.820;2023-04-15T09:28:27;6.82;;;3.35;;
11191;SDS011;5652;48.406;10.820;2023-04-15T09:30:54;14.52;;;6.63;;
11191;SDS011;5652;48.406;10.820;2023-04-15T09:33:22;4.88;;;2.10;;
11191;SDS011;5652;48.406;10.820;2023-04-15T09:35:56;20.50;;;8.30;;
11191;SDS011;5652;48.406;10.820;2023-04-15T09:38:24;10.45;;;6.00;;
11191;SDS011;5652;48.406;10.820;2023-04-15T09:40:51;5.70;;;3.63;;
11191;SDS011;5652;48.406;10.820;2023-04-15T09:43:18;5.75;;;3.03;;
11191;SDS011;5652;48.406;10.820;2023-04-15T09:45:50;5.15;;;2.42;;
11191;SDS011;5652;48.406;10.820;2023-04-15T09:48:18;3.07;;;2.40;;
11191;SDS011;5652;48.406;10.820;2023-04-15T09:50:46;5.93;;;2.77;;
11191;SDS011;5652;48.406;10.820;2023-04-15T09:53:17;3.83;;;2.10;;
11191;SDS011;5652;48.406;10.820;2023-04-15T09:55:45;3.47;;;2.05;;
11191;SDS011;5652;48.406;10.820;2023-04-15T09:58:19;2.92;;;1.92;;
11191;SDS011;5652;48.406;10.820;2023-04-15T10:00:47;2.72;;;2.00;;
11191;SDS011;5652;48.406;10.820;2023-04-15T10:03:17;4.55;;;2.50;;
11191;SDS011;5652;48.406;10.820;2023-04-15T10:05:45;3.95;;;2.30;;
11191;SDS011;5652;48.406;10.820;2023-04-15T10:08:13;3.88;;;2.03;;
11191;SDS011;5652;48.406;10.820;2023-04-15T10:10:41;4.90;;;2.05;;
11191;SDS011;5652;48.406;10.820;2023-04-15T10:13:08;2.72;;;2.03;;
11191;SDS011;5652;48.406;10.820;2023-04-15T10:15:36;3.85;;;2.35;;
11191;SDS011;5652;48.406;10.820;2023-04-15T10:18:04;3.03;;;1.90;;
11191;SDS011;5652;48.406;10.820;2023-04-15T10:20:33;4.67;;;2.30;;
11191;SDS011;5652;48.406;10.820;2023-04-15T10:23:01;4.20;;;2.30;;
11191;SDS011;5652;48.406;10.820;2023-04-15T10:25:28;4.80;;;2.35;;
11191;SDS011;5652;48.406;10.820;2023-04-15T10:27:57;4.55;;;2.50;;
11191;SDS011;5652;48.406;10.820;2023-04-15T10:30:24;7.07;;;2.87;;
11191;SDS011;5652;48.406;10.820;2023-04-15T10:32:51;3.20;;;2.53;;
11191;SDS011;5652;48.406;10.820;2023-04-15T10:35:19;3.53;;;2.37;;
11191;SDS011;5652;48.406;10.820;2023-04-15T10:37:48;4.22;;;2.38;;
11191;SDS011;5652;48.406;10.820;2023-04-15T10:40:22;4.90;;;2.30;;
11191;SDS011;5652;48.406;10.820;2023-04-15T10:42:51;5.38;;;2.40;;
11191;SDS011;5652;48.406;10.820;2023-04-15T10:45:18;5.35;;;2.50;;
11191;SDS011;5652;48.406;10.820;2023-04-15T10:47:45;7.15;;;2.70;;
11191;SDS011;5652;48.406;10.820;2023-04-15T10:50:12;3.40;;;2.33;;
11191;SDS011;5652;48.406;10.820;2023-04-15T10:52:39;3.40;;;2.43;;
11191;SDS011;5652;48.406;10.820;2023-04-15T10:55:15;5.22;;;2.63;;
11191;SDS011;5652;48.406;10.820;2023-04-15T10:57:44;5.03;;;2.90;;
11191;SDS011;5652;48.406;10.820;2023-04-15T11:00:12;5.00;;;2.40;;
11191;SDS011;5652;48.406;10.820;2023-04-15T11:02:40;2.65;;;1.50;;
11191;SDS011;5652;48.406;10.820;2023-04-15T11:05:08;3.60;;;1.33;;
11191;SDS011;5652;48.406;10.820;2023-04-15T11:07:36;2.42;;;1.42;;
11191;SDS011;5652;48.406;10.820;2023-04-15T11:10:10;2.70;;;1.30;;
11191;SDS011;5652;48.406;10.820;2023-04-15T11:12:59;3.33;;;1.30;;
11191;SDS011;5652;48.406;10.820;2023-04-15T11:15:28;3.40;;;1.20;;
11191;SDS011;5652;48.406;10.820;2023-04-15T11:17:56;1.60;;;1.15;;
11191;SDS011;5652;48.406;10.820;2023-04-15T11:20:23;2.83;;;1.20;;
11191;SDS011;5652;48.406;10.820;2023-04-15T11:22:50;2.43;;;1.10;;
11191;SDS011;5652;48.406;10.820;2023-04-15T11:25:21;2.13;;;1.50;;
11191;SDS011;5652;48.406;10.820;2023-04-15T11:27:49;2.30;;;1.40;;
11191;SDS011;5652;48.406;10.820;2023-04-15T11:30:19;1.92;;;1.10;;
11191;SDS011;5652;48.406;10.820;2023-04-15T11:32:46;1.55;;;1.13;;
11191;SDS011;5652;48.406;10.820;2023-04-15T11:35:13;1.20;;;1.10;;
11191;SDS011;5652;48.406;10.820;2023-04-15T11:37:42;2.40;;;0.90;;
11191;SDS011;5652;48.406;10.820;2023-04-15T11:40:09;2.08;;;1.02;;
11191;SDS011;5652;48.406;10.820;2023-04-15T11:42:37;1.30;;;0.90;;
11191;SDS011;5652;48.406;10.820;2023-04-15T11:45:07;1.58;;;1.30;;
11191;SDS011;5652;48.406;10.820;2023-04-15T11:47:36;2.35;;;1.33;;
11191;SDS011;5652;48.406;10.820;2023-04-15T11:50:12;1.92;;;1.30;;
11191;SDS011;5652;48.406;10.820;2023-04-15T11:52:40;3.17;;;1.40;;
11191;SDS011;5652;48.406;10.820;2023-04-15T11:55:07;2.40;;;1.35;;
11191;SDS011;5652;48.406;10.820;2023-04-15T11:57:35;3.83;;;1.30;;
11191;SDS011;5652;48.406;10.820;2023-04-15T12:00:02;2.60;;;1.60;;
11191;SDS011;5652;48.406;10.820;2023-04-15T12:02:30;2.35;;;1.40;;
11191;SDS011;5652;48.406;10.820;2023-04-15T12:05:05;2.78;;;1.63;;
11191;SDS011;5652;48.406;10.820;2023-04-15T12:07:33;2.20;;;1.13;;
11191;SDS011;5652;48.406;10.820;2023-04-15T12:10:00;2.58;;;1.40;;
11191;SDS011;5652;48.406;10.820;2023-04-15T12:12:29;1.88;;;1.63;;
11191;SDS011;5652;48.406;10.820;2023-04-15T12:14:56;2.60;;;1.70;;
11191;SDS011;5652;48.406;10.820;2023-04-15T12:17:24;2.15;;;1.52;;
11191;SDS011;5652;48.406;10.820;2023-04-15T12:19:55;3.25;;;1.55;;
11191;SDS011;5652;48.406;10.820;2023-04-15T12:22:23;4.93;;;1.70;;
11191;SDS011;5652;48.406;10.820;2023-04-15T12:24:53;2.58;;;1.75;;
11191;SDS011;5652;48.406;10.820;2023-04-15T12:27:24;3.65;;;1.90;;
11191;SDS011;5652;48.406;10.820;2023-04-15T12:29:54;4.90;;;1.80;;
11191;SDS011;5652;48.406;10.820;2023-04-15T12:32:29;3.15;;;1.80;;
11191;SDS011;5652;48.406;10.820;2023-04-15T12:34:56;2.37;;;1.80;;
11191;SDS011;5652;48.406;10.820;2023-04-15T12:37:26;2.15;;;1.70;;
11191;SDS011;5652;48.406;10.820;2023-04-15T12:39:53;2.28;;;1.88;;
11191;SDS011;5652;48.406;10.820;2023-04-15T12:42:20;4.10;;;2.20;;
11191;SDS011;5652;48.406;10.820;2023-04-15T12:44:47;3.00;;;1.80;;
11191;SDS011;5652;48.406;10.820;2023-04-15T12:47:14;2.67;;;1.98;;
11191;SDS011;5652;48.406;10.820;2023-04-15T12:49:41;4.38;;;1.60;;
11191;SDS011;5652;48.406;10.820;2023-04-15T12:52:08;2.85;;;1.50;;
11191;SDS011;5652;48.406;10.820;2023-04-15T12:54:37;3.67;;;1.80;;
11191;SDS011;5652;48.406;10.820;2023-04-15T12:57:05;2.28;;;1.67;;
11191;SDS011;5652;48.406;10.820;2023-04-15T12:59:32;2.15;;;1.65;;
11191;SDS011;5652;48.406;10.820;2023-04-15T13:01:59;2.45;;;2.22;;
11191;SDS011;5652;48.406;10.820;2023-04-15T13:04:26;2.85;;;1.30;;
11191;SDS011;5652;48.406;10.820;2023-04-15T13:06:54;2.50;;;1.40;;
11191;SDS011;5652;48.406;10.820;2023-04-15T13:09:21;4.70;;;1.30;;
11191;SDS011;5652;48.406;10.820;2023-04-15T13:11:50;2.05;;;1.20;;
11191;SDS011;5652;48.406;10.820;2023-04-15T13:14:18;2.20;;;1.30;;
11191;SDS011;5652;48.406;10.820;2023-04-15T13:16:45;1.50;;;1.27;;
11191;SDS011;5652;48.406;10.820;2023-04-15T13:19:12;1.70;;;1.23;;
11191;SDS011;5652;48.406;10.820;2023-04-15T13:21:40;1.90;;;1.33;;
11191;SDS011;5652;48.406;10.820;2023-04-15T13:24:07;3.20;;;1.38;;
11191;SDS011;5652;48.406;10.820;2023-04-15T13:26:35;3.53;;;1.40;;
11191;SDS011;5652;48.406;10.820;2023-04-15T13:29:04;3.53;;;1.53;;
11191;SDS011;5652;48.406;10.820;2023-04-15T13:31:31;3.83;;;1.67;;
11191;SDS011;5652;48.406;10.820;2023-04-15T13:33:58;4.43;;;1.90;;
11191;SDS011;5652;48.406;10.820;2023-04-15T13:36:25;2.83;;;2.00;;
11191;SDS011;5652;48.406;10.820;2023-04-15T13:38:52;4.15;;;1.88;;
11191;SDS011;5652;48.406;10.820;2023-04-15T13:41:19;7.55;;;2.20;;
11191;SDS011;5652;48.406;10.820;2023-04-15T13:43:46;3.72;;;2.38;;
11191;SDS011;5652;48.406;10.820;2023-04-15T13:46:17;2.55;;;1.95;;
11191;SDS011;5652;48.406;10.820;2023-04-15T13:48:44;4.20;;;1.90;;
11191;SDS011;5652;48.406;10.820;2023-04-15T13:51:11;3.30;;;2.00;;
11191;SDS011;5652;48.406;10.820;2023-04-15T13:53:38;3.47;;;2.03;;
11191;SDS011;5652;48.406;10.820;2023-04-15T13:56:06;3.53;;;2.20;;
11191;SDS011;5652;48.406;10.820;2023-04-15T13:58:33;2.78;;;2.00;;
11191;SDS011;5652;48.406;10.820;2023-04-15T14:01:00;3.30;;;1.90;;
11191;SDS011;5652;48.406;10.820;2023-04-15T14:03:28;3.73;;;2.10;;
11191;SDS011;5652;48.406;10.820;2023-04-15T14:05:55;3.30;;;2.20;;
11191;SDS011;5652;48.406;10.820;2023-04-15T14:08:23;4.00;;;2.10;;
11191;SDS011;5652;48.406;10.820;2023-04-15T14:10:50;4.63;;;2.38;;
11191;SDS011;5652;48.406;10.820;2023-04-15T14:13:17;4.03;;;2.30;;
11191;SDS011;5652;48.406;10.820;2023-04-15T14:15:46;2.40;;;1.90;;
11191;SDS011;5652;48.406;10.820;2023-04-15T14:18:13;3.15;;;1.60;;
11191;SDS011;5652;48.406;10.820;2023-04-15T14:20:41;2.28;;;1.50;;
11191;SDS011;5652;48.406;10.820;2023-04-15T14:23:09;2.45;;;1.40;;
11191;SDS011;5652;48.406;10.820;2023-04-15T14:25:36;2.37;;;1.47;;
11191;SDS011;5652;48.406;10.820;2023-04-15T14:28:03;2.85;;;1.48;;
11191;SDS011;5652;48.406;10.820;2023-04-15T14:30:30;2.80;;;1.58;;
11191;SDS011;5652;48.406;10.820;2023-04-15T14:32:57;3.63;;;2.40;;
11191;SDS011;5652;48.406;10.820;2023-04-15T14:35:24;2.97;;;1.98;;
11191;SDS011;5652;48.406;10.820;2023-04-15T14:37:53;2.78;;;1.80;;
11191;SDS011;5652;48.406;10.820;2023-04-15T14:40:20;3.58;;;1.77;;
11191;SDS011;5652;48.406;10.820;2023-04-15T14:42:47;3.05;;;1.70;;
11191;SDS011;5652;48.406;10.820;2023-04-15T14:45:14;2.72;;;1.90;;
11191;SDS011;5652;48.406;10.820;2023-04-15T14:47:44;4.47;;;1.83;;
11191;SDS011;5652;48.406;10.820;2023-04-15T14:50:11;2.22;;;1.80;;